Time;durP1;ratioP1;P1;durP2;ratioP2;P2;SDS_P1;SDS_P2;PMS_P1;PMS_P2;Temp;Humidity;BMP_temperature;BMP_pressure;BME280_temperature;BME280_humidity;BME280_pressure;Samples;Min_cycle;Max_cycle;Signal;HPM_P1;HPM_P2
2022/02/20 00:00:52;;;;;;;3.93;2.97;;;7.10;99.90;;;;;;5061520;28;20635;-67
2022/02/20 00:03:17;;;;;;;6.60;3.70;;;7.10;99.90;;;;;;5051391;28;20166;-68
2022/02/20 00:05:44;;;;;;;5.17;3.00;;;7.20;99.90;;;;;;5051707;28;20483;-68
2022/02/20 00:08:10;;;;;;;6.05;3.13;;;7.20;99.90;;;;;;5051421;28;20408;-68
2022/02/20 00:10:36;;;;;;;5.23;3.03;;;7.20;99.90;;;;;;5051374;28;20685;-67
2022/02/20 00:13:03;;;;;;;9.50;3.17;;;7.30;99.90;;;;;;5051754;28;20404;-68
2022/02/20 00:15:30;;;;;;;4.27;3.10;;;7.30;99.90;;;;;;5052634;28;20229;-67
2022/02/20 00:17:57;;;;;;;7.73;3.33;;;7.30;99.90;;;;;;5054605;28;20769;-67
2022/02/20 00:20:25;;;;;;;7.00;3.65;;;7.40;99.90;;;;;;5050921;28;20465;-67
2022/02/20 00:22:51;;;;;;;5.57;2.70;;;7.40;99.90;;;;;;5052150;28;20209;-67
2022/02/20 00:25:17;;;;;;;10.53;3.03;;;7.30;99.90;;;;;;5051646;28;20837;-68
2022/02/20 00:27:43;;;;;;;5.70;2.40;;;7.20;99.90;;;;;;5051565;28;20409;-67
2022/02/20 00:30:09;;;;;;;4.63;2.40;;;7.20;99.90;;;;;;5051782;28;20440;-67
2022/02/20 00:32:34;;;;;;;6.33;2.60;;;7.20;99.90;;;;;;5051280;28;20635;-67
2022/02/20 00:35:00;;;;;;;6.53;2.63;;;7.30;99.90;;;;;;5065957;28;20472;-67
2022/02/20 00:37:25;;;;;;;5.70;2.83;;;7.30;99.90;;;;;;5078296;28;20224;-69
2022/02/20 00:39:51;;;;;;;6.33;2.73;;;7.30;99.90;;;;;;5084779;28;20823;-69
2022/02/20 00:42:16;;;;;;;3.60;3.00;;;7.30;99.90;;;;;;5082567;28;20189;-67
2022/02/20 00:44:42;;;;;;;5.63;2.57;;;7.30;99.90;;;;;;5076508;28;20243;-66
2022/02/20 00:47:07;;;;;;;5.70;3.40;;;7.30;99.90;;;;;;5074633;28;20708;-70
2022/02/20 00:49:33;;;;;;;3.43;3.13;;;7.30;99.90;;;;;;5072991;28;20178;-68
2022/02/20 00:51:58;;;;;;;5.60;3.30;;;7.30;99.90;;;;;;5054964;28;20185;-68
2022/02/20 00:54:24;;;;;;;6.20;3.50;;;7.20;99.90;;;;;;5079431;28;20185;-70
2022/02/20 00:56:49;;;;;;;6.13;3.27;;;7.20;99.90;;;;;;5080078;28;20575;-69
2022/02/20 00:59:15;;;;;;;7.33;4.50;;;7.10;99.90;;;;;;5077052;28;20227;-68
2022/02/20 01:01:41;;;;;;;6.03;3.37;;;7.00;99.90;;;;;;5077116;28;20204;-68
2022/02/20 01:04:08;;;;;;;6.93;3.63;;;6.90;99.90;;;;;;5077512;28;20228;-68
2022/02/20 01:06:33;;;;;;;4.13;3.73;;;6.90;99.90;;;;;;5064214;28;20504;-68
2022/02/20 01:08:59;;;;;;;6.27;3.93;;;6.80;99.90;;;;;;5084793;28;20846;-68
2022/02/20 01:11:24;;;;;;;5.47;4.80;;;6.70;99.90;;;;;;5055504;28;20233;-68
2022/02/20 01:13:50;;;;;;;4.43;4.00;;;6.60;99.90;;;;;;5054705;28;20606;-69
2022/02/20 01:16:16;;;;;;;6.23;4.00;;;6.50;99.90;;;;;;5055012;28;20252;-69
2022/02/20 01:18:42;;;;;;;7.50;4.50;;;6.50;99.90;;;;;;5054938;28;20178;-67
2022/02/20 01:21:07;;;;;;;5.90;4.20;;;6.40;99.90;;;;;;5054542;28;20446;-69
2022/02/20 01:23:33;;;;;;;9.30;4.63;;;6.40;99.90;;;;;;5054447;28;20179;-67
2022/02/20 01:25:58;;;;;;;4.17;3.77;;;6.40;99.90;;;;;;5055719;28;20193;-68
2022/02/20 01:28:24;;;;;;;6.43;4.40;;;6.40;99.90;;;;;;5054954;28;20180;-67
2022/02/20 01:30:50;;;;;;;9.83;4.30;;;6.40;99.90;;;;;;5057810;28;20198;-68
2022/02/20 01:33:17;;;;;;;4.33;3.93;;;6.30;99.90;;;;;;5054913;28;20241;-67
2022/02/20 01:35:43;;;;;;;5.00;4.27;;;6.30;99.90;;;;;;5037119;28;20677;-68
2022/02/20 01:38:08;;;;;;;4.67;4.10;;;6.30;99.90;;;;;;5055478;28;20417;-69
2022/02/20 01:40:34;;;;;;;4.37;3.97;;;6.40;99.90;;;;;;5054650;28;20186;-68
2022/02/20 01:43:00;;;;;;;5.87;4.90;;;6.40;99.90;;;;;;5039004;28;20170;-67
2022/02/20 01:45:26;;;;;;;5.10;4.00;;;6.30;99.90;;;;;;5074572;28;20407;-69
2022/02/20 01:47:52;;;;;;;6.67;4.70;;;6.20;99.90;;;;;;5075047;28;20477;-68
2022/02/20 01:50:17;;;;;;;4.37;3.97;;;6.30;99.90;;;;;;5074061;28;20239;-68
2022/02/20 01:52:44;;;;;;;8.77;4.17;;;6.30;99.90;;;;;;5074040;28;20236;-68
2022/02/20 01:55:10;;;;;;;7.50;4.80;;;6.30;99.90;;;;;;5074440;28;20177;-67
2022/02/20 01:57:37;;;;;;;9.57;4.67;;;6.20;99.90;;;;;;5074014;28;20450;-67
2022/02/20 02:00:05;;;;;;;4.97;3.80;;;6.10;99.90;;;;;;5070359;28;20440;-68
2022/02/20 02:02:32;;;;;;;9.43;3.67;;;6.10;99.90;;;;;;5053702;28;20428;-67
2022/02/20 02:04:57;;;;;;;7.13;3.53;;;5.90;99.90;;;;;;5053522;28;20462;-68
2022/02/20 02:07:23;;;;;;;6.40;3.63;;;6.00;99.90;;;;;;5053744;28;20507;-68
2022/02/20 02:09:48;;;;;;;4.70;3.07;;;6.10;99.90;;;;;;5053746;28;20201;-69
2022/02/20 02:12:14;;;;;;;3.87;3.03;;;6.10;99.90;;;;;;5035691;28;20170;-68
2022/02/20 02:14:56;;;;;;;4.23;3.20;;;6.10;99.90;;;;;;5054091;28;20232;-68
2022/02/20 02:17:23;;;;;;;4.77;3.93;;;6.10;99.90;;;;;;5053673;28;20269;-67
2022/02/20 02:19:49;;;;;;;8.70;3.50;;;6.10;99.90;;;;;;5053592;28;20437;-69
2022/02/20 02:22:16;;;;;;;5.80;3.30;;;6.10;99.90;;;;;;5053557;28;20398;-68
2022/02/20 02:24:42;;;;;;;5.20;3.20;;;6.10;99.90;;;;;;5054109;28;20178;-68
2022/02/20 02:27:11;;;;;;;4.03;3.37;;;6.20;99.90;;;;;;5053238;28;20404;-67
2022/02/20 02:29:37;;;;;;;5.40;3.10;;;6.20;99.90;;;;;;5053475;28;20670;-67
2022/02/20 02:32:02;;;;;;;5.90;2.83;;;6.20;99.90;;;;;;5052803;28;20412;-68
2022/02/20 02:34:28;;;;;;;7.13;3.30;;;6.30;99.90;;;;;;5056047;28;20171;-69
2022/02/20 02:36:53;;;;;;;6.17;3.13;;;6.40;99.90;;;;;;5053493;28;20198;-67
2022/02/20 02:39:19;;;;;;;9.10;3.60;;;6.40;99.90;;;;;;5054327;28;20675;-67
2022/02/20 02:41:44;;;;;;;5.83;3.00;;;6.30;99.90;;;;;;5052675;28;20201;-67
2022/02/20 02:44:10;;;;;;;4.27;2.57;;;6.20;99.90;;;;;;5053307;28;20586;-68
2022/02/20 02:46:36;;;;;;;5.00;3.00;;;6.20;99.90;;;;;;5053063;28;20202;-68
2022/02/20 02:49:03;;;;;;;6.30;3.30;;;6.30;99.90;;;;;;5052761;28;20189;-67
2022/02/20 02:51:29;;;;;;;4.60;2.40;;;6.20;99.90;;;;;;5052651;28;20182;-69
2022/02/20 02:53:55;;;;;;;5.37;2.90;;;6.10;99.90;;;;;;5068671;28;20769;-69
2022/02/20 02:56:21;;;;;;;4.03;2.97;;;6.10;99.90;;;;;;5072921;28;20235;-68
2022/02/20 02:58:47;;;;;;;8.43;3.03;;;6.00;99.90;;;;;;5072484;28;20404;-67
2022/02/20 03:01:14;;;;;;;4.10;2.53;;;6.10;99.90;;;;;;5072479;28;20419;-67
2022/02/20 03:03:39;;;;;;;6.03;3.07;;;6.20;99.90;;;;;;5072283;28;20174;-69
2022/02/20 03:06:14;;;;;;;6.13;3.13;;;6.30;99.90;;;;;;5072503;28;20410;-68
2022/02/20 03:08:40;;;;;;;2.30;2.20;;;6.30;99.90;;;;;;5071343;28;20248;-69
2022/02/20 03:11:07;;;;;;;4.33;3.03;;;6.30;99.90;;;;;;5052500;28;20977;-69
2022/02/20 03:13:33;;;;;;;5.17;3.10;;;6.30;99.90;;;;;;5052473;28;20503;-69
2022/02/20 03:16:00;;;;;;;7.77;3.00;;;6.30;99.90;;;;;;5052164;28;20560;-68
2022/02/20 03:18:30;;;;;;;2.67;2.47;;;6.20;99.90;;;;;;5052241;28;20408;-67
2022/02/20 03:21:01;;;;;;;4.30;2.33;;;6.10;99.90;;;;;;5052030;28;20536;-68
2022/02/20 03:23:26;;;;;;;3.00;2.33;;;6.10;99.90;;;;;;5051888;28;20920;-68
2022/02/20 03:25:52;;;;;;;5.97;2.70;;;6.10;99.90;;;;;;5054251;28;20543;-68
2022/02/20 03:28:18;;;;;;;2.43;2.23;;;5.90;99.90;;;;;;5072027;28;20170;-67
2022/02/20 03:30:43;;;;;;;4.27;2.70;;;6.00;99.90;;;;;;5072029;28;20343;-67
2022/02/20 03:33:09;;;;;;;4.27;2.87;;;6.10;99.90;;;;;;5072209;28;20439;-69
2022/02/20 03:35:35;;;;;;;4.07;2.80;;;6.20;99.90;;;;;;5072241;28;20200;-67
2022/02/20 03:38:01;;;;;;;5.30;2.50;;;6.30;99.90;;;;;;5072460;28;20424;-67
2022/02/20 03:40:27;;;;;;;3.53;2.50;;;6.30;99.90;;;;;;5071923;28;20205;-67
2022/02/20 03:42:52;;;;;;;2.60;2.07;;;6.40;99.90;;;;;;5070014;28;20704;-66
2022/02/20 03:45:18;;;;;;;10.40;3.43;;;6.40;99.90;;;;;;5072147;28;20200;-67
2022/02/20 03:47:44;;;;;;;7.43;2.70;;;6.30;99.90;;;;;;5072514;28;20190;-67
2022/02/20 03:50:10;;;;;;;2.90;2.10;;;6.30;99.90;;;;;;5071776;28;20185;-68
2022/02/20 03:52:36;;;;;;;2.83;2.63;;;6.30;99.90;;;;;;5072106;28;20435;-68
2022/02/20 03:55:07;;;;;;;4.10;2.47;;;6.20;99.90;;;;;;5072059;28;20408;-68
2022/02/20 03:57:33;;;;;;;8.87;2.90;;;6.20;99.90;;;;;;5071944;28;20538;-68
2022/02/20 04:00:05;;;;;;;2.20;2.10;;;6.30;99.90;;;;;;5066859;28;20527;-67
2022/02/20 04:02:31;;;;;;;4.07;2.40;;;6.20;99.90;;;;;;5051768;28;20546;-68
2022/02/20 04:04:57;;;;;;;5.57;2.80;;;6.20;99.90;;;;;;5051642;28;20462;-68
2022/02/20 04:07:23;;;;;;;8.77;3.53;;;6.10;99.90;;;;;;5034378;28;20174;-68
2022/02/20 04:09:49;;;;;;;7.47;2.53;;;6.20;99.90;;;;;;5051753;28;20581;-69
2022/02/20 04:12:15;;;;;;;6.83;2.70;;;6.30;99.90;;;;;;5051420;28;20248;-68
2022/02/20 04:14:40;;;;;;;4.20;2.53;;;6.30;99.90;;;;;;5051623;28;21006;-69
2022/02/20 04:17:06;;;;;;;5.77;2.60;;;6.40;99.90;;;;;;5060614;28;20482;-69
2022/02/20 04:19:31;;;;;;;4.87;2.90;;;6.40;99.90;;;;;;5071451;28;20173;-68
2022/02/20 04:21:57;;;;;;;3.50;2.53;;;6.40;99.90;;;;;;5071498;28;20526;-68
2022/02/20 04:24:22;;;;;;;6.80;3.07;;;6.40;99.90;;;;;;5072111;28;20181;-69
2022/02/20 04:26:48;;;;;;;6.37;3.53;;;6.40;99.90;;;;;;5071743;28;20188;-68
2022/02/20 04:29:15;;;;;;;12.83;4.07;;;6.40;99.90;;;;;;5072187;28;20182;-68
2022/02/20 04:31:41;;;;;;;3.77;3.40;;;6.30;99.90;;;;;;5071779;28;20198;-68
2022/02/20 04:34:06;;;;;;;8.57;3.73;;;6.30;99.90;;;;;;5069944;28;20778;-67
2022/02/20 04:36:35;;;;;;;8.60;3.43;;;6.30;99.90;;;;;;5071810;28;20562;-68
2022/02/20 04:39:06;;;;;;;4.47;3.43;;;6.20;99.90;;;;;;5059036;28;20253;-68
2022/02/20 04:41:31;;;;;;;10.10;3.80;;;6.20;99.90;;;;;;5055742;28;20451;-67
2022/02/20 04:43:57;;;;;;;4.40;3.40;;;6.20;99.90;;;;;;5055308;28;20425;-68
2022/02/20 04:46:23;;;;;;;5.10;3.80;;;6.20;99.90;;;;;;5054638;28;20182;-68
2022/02/20 04:48:49;;;;;;;5.90;3.60;;;6.20;99.90;;;;;;5055322;28;20419;-68
2022/02/20 04:51:14;;;;;;;5.80;3.20;;;6.30;99.90;;;;;;5055538;28;20289;-68
2022/02/20 04:53:40;;;;;;;7.50;3.97;;;6.30;99.90;;;;;;5056118;28;20265;-68
2022/02/20 04:56:05;;;;;;;4.87;3.60;;;6.20;99.90;;;;;;5054946;28;20563;-68
2022/02/20 04:58:31;;;;;;;5.90;4.10;;;6.20;99.90;;;;;;5055385;28;20179;-68
2022/02/20 05:00:57;;;;;;;4.80;3.47;;;6.20;99.90;;;;;;5055241;28;20237;-68
2022/02/20 05:03:23;;;;;;;6.87;4.10;;;6.10;99.90;;;;;;5057936;28;20426;-67
2022/02/20 05:05:49;;;;;;;5.47;3.50;;;6.10;99.90;;;;;;5075355;28;20412;-67
2022/02/20 05:08:14;;;;;;;6.87;4.43;;;6.10;99.90;;;;;;5075187;28;20174;-67
2022/02/20 05:10:40;;;;;;;6.73;4.10;;;6.10;99.90;;;;;;5074775;28;20436;-68
2022/02/20 05:13:06;;;;;;;5.73;4.13;;;6.10;99.90;;;;;;5074924;28;20174;-68
2022/02/20 05:15:31;;;;;;;5.80;3.50;;;6.10;99.90;;;;;;5073320;28;20192;-67
2022/02/20 05:17:57;;;;;;;6.40;4.73;;;6.10;99.90;;;;;;5074559;28;20194;-67
2022/02/20 05:20:22;;;;;;;6.10;3.73;;;5.90;99.90;;;;;;5074748;28;20205;-68
2022/02/20 05:22:48;;;;;;;5.67;4.00;;;6.00;99.90;;;;;;5076055;22;20268;-69
2022/02/20 05:25:14;;;;;;;6.27;4.63;;;6.00;99.90;;;;;;5049516;28;20709;-70
2022/02/20 05:27:44;;;;;;;4.13;3.73;;;6.00;99.90;;;;;;5054163;28;20257;-69
2022/02/20 05:30:16;;;;;;;11.03;4.80;;;5.90;99.90;;;;;;5054120;28;20219;-69
2022/02/20 05:32:42;;;;;;;7.27;4.97;;;5.90;99.90;;;;;;5053656;28;20416;-69
2022/02/20 05:35:08;;;;;;;5.50;5.00;;;5.90;99.90;;;;;;5055040;28;20392;-69
2022/02/20 05:37:45;;;;;;;6.70;4.87;;;6.00;99.90;;;;;;5053964;28;20949;-69
2022/02/20 05:40:12;;;;;;;5.47;4.73;;;6.00;99.90;;;;;;5054015;28;20419;-69
2022/02/20 05:42:39;;;;;;;8.67;5.20;;;6.10;99.90;;;;;;5053623;28;20428;-69
2022/02/20 05:45:05;;;;;;;7.23;4.57;;;6.10;99.90;;;;;;5053695;28;20750;-70
2022/02/20 05:47:31;;;;;;;5.30;4.40;;;6.10;99.90;;;;;;5055138;28;20420;-69
2022/02/20 05:49:56;;;;;;;6.93;4.97;;;6.20;99.90;;;;;;5053709;28;20409;-69
2022/02/20 05:52:22;;;;;;;6.60;5.30;;;6.30;99.90;;;;;;5053337;28;20276;-69
2022/02/20 05:54:47;;;;;;;9.17;5.77;;;6.30;99.90;;;;;;5053413;28;20182;-70
2022/02/20 05:57:13;;;;;;;8.07;5.20;;;6.20;99.90;;;;;;5054569;28;20202;-70
2022/02/20 05:59:38;;;;;;;8.73;5.07;;;6.20;99.90;;;;;;5053412;28;20171;-68
2022/02/20 06:02:04;;;;;;;11.20;5.80;;;6.20;99.90;;;;;;5053186;28;20248;-69
2022/02/20 06:04:30;;;;;;;9.27;5.30;;;6.20;99.90;;;;;;5053246;28;20194;-69
2022/02/20 06:06:55;;;;;;;12.50;5.90;;;6.30;99.90;;;;;;5053828;28;20177;-69
2022/02/20 06:09:21;;;;;;;6.33;5.73;;;6.30;99.90;;;;;;5053994;28;20239;-69
2022/02/20 06:11:46;;;;;;;6.60;5.90;;;6.30;99.90;;;;;;5053074;28;20609;-69
2022/02/20 06:14:12;;;;;;;8.27;6.00;;;6.30;99.90;;;;;;5053327;28;20595;-70
2022/02/20 06:16:37;;;;;;;9.00;5.80;;;6.30;99.90;;;;;;5035147;28;20198;-69
2022/02/20 06:19:03;;;;;;;9.47;5.23;;;6.30;99.90;;;;;;5054257;28;20189;-68
2022/02/20 06:21:28;;;;;;;8.03;5.50;;;6.40;99.90;;;;;;5052814;28;20194;-70
2022/02/20 06:23:54;;;;;;;14.50;6.43;;;6.40;99.90;;;;;;5053007;28;20178;-69
2022/02/20 06:26:19;;;;;;;6.77;5.67;;;6.40;99.90;;;;;;5052941;28;20730;-69
2022/02/20 06:28:45;;;;;;;13.00;6.17;;;6.50;99.90;;;;;;5053778;28;20716;-70
2022/02/20 06:31:10;;;;;;;8.30;5.50;;;6.50;99.90;;;;;;5052770;28;20176;-69
2022/02/20 06:33:36;;;;;;;9.20;5.20;;;6.50;99.90;;;;;;5052630;28;20181;-69
2022/02/20 06:36:02;;;;;;;8.50;5.50;;;6.50;99.90;;;;;;5052719;28;20197;-69
2022/02/20 06:38:27;;;;;;;7.47;4.97;;;6.50;99.90;;;;;;5034792;28;20170;-69
2022/02/20 06:40:53;;;;;;;11.13;5.43;;;6.60;99.90;;;;;;5053684;28;20211;-69
2022/02/20 06:43:18;;;;;;;8.80;5.40;;;6.60;99.90;;;;;;5052381;28;20304;-69
2022/02/20 06:45:44;;;;;;;5.90;4.90;;;6.60;99.90;;;;;;5052466;28;20171;-68
2022/02/20 06:48:09;;;;;;;9.83;4.67;;;6.60;99.90;;;;;;5053498;28;20189;-69
2022/02/20 06:50:35;;;;;;;11.53;4.80;;;6.60;99.90;;;;;;5052700;28;20189;-69
2022/02/20 06:53:02;;;;;;;6.60;4.83;;;6.60;99.90;;;;;;5052024;28;20289;-69
2022/02/20 06:55:27;;;;;;;11.90;5.70;;;6.70;99.90;;;;;;5052425;28;20223;-69
2022/02/20 06:57:54;;;;;;;10.17;5.13;;;6.70;99.90;;;;;;5052377;28;20535;-68
2022/02/20 07:00:19;;;;;;;10.03;4.77;;;6.70;99.90;;;;;;5053109;28;20198;-69
2022/02/20 07:02:45;;;;;;;7.73;5.23;;;6.80;99.90;;;;;;5051484;28;20789;-69
2022/02/20 07:05:11;;;;;;;8.93;4.80;;;6.80;99.90;;;;;;5052184;28;20182;-69
2022/02/20 07:07:37;;;;;;;9.03;4.90;;;6.80;99.90;;;;;;5052139;28;20273;-70
2022/02/20 07:10:06;;;;;;;9.97;5.53;;;6.80;99.90;;;;;;5053529;28;20193;-70
2022/02/20 07:12:32;;;;;;;8.27;4.47;;;6.80;99.90;;;;;;5034306;28;20437;-70
2022/02/20 07:14:57;;;;;;;8.33;4.03;;;6.90;99.90;;;;;;5052114;28;20813;-69
2022/02/20 07:17:23;;;;;;;8.00;4.67;;;6.90;99.90;;;;;;5052102;28;20278;-69
2022/02/20 07:19:48;;;;;;;9.70;5.37;;;6.90;99.90;;;;;;5052927;28;20261;-69
2022/02/20 07:22:14;;;;;;;13.30;5.60;;;6.90;99.90;;;;;;5051287;28;20206;-69
2022/02/20 07:24:39;;;;;;;11.50;4.70;;;7.00;99.90;;;;;;5051766;28;20191;-69
2022/02/20 07:27:05;;;;;;;9.63;4.90;;;7.00;99.90;;;;;;5052035;28;20201;-69
2022/02/20 07:29:31;;;;;;;8.43;4.70;;;7.00;99.90;;;;;;5051804;28;20194;-69
2022/02/20 07:31:56;;;;;;;9.87;4.43;;;7.00;99.90;;;;;;5052639;28;20278;-70
2022/02/20 07:34:24;;;;;;;12.83;4.50;;;7.00;99.90;;;;;;5051731;28;20186;-70
2022/02/20 07:36:49;;;;;;;7.10;3.90;;;7.10;99.90;;;;;;5051913;28;20212;-70
2022/02/20 07:39:15;;;;;;;7.53;3.97;;;7.10;99.90;;;;;;5051527;28;20409;-70
2022/02/20 07:41:40;;;;;;;8.27;4.30;;;7.10;99.90;;;;;;5052374;28;20197;-70
2022/02/20 07:44:06;;;;;;;11.10;4.03;;;7.20;99.90;;;;;;5051563;28;20243;-70
2022/02/20 07:46:33;;;;;;;11.03;4.70;;;7.10;99.90;;;;;;5051658;28;20171;-70
2022/02/20 07:48:58;;;;;;;16.97;5.57;;;7.20;99.90;;;;;;5051751;28;20211;-69
2022/02/20 07:51:24;;;;;;;4.60;3.30;;;7.20;99.90;;;;;;5052447;28;20943;-69
2022/02/20 07:53:51;;;;;;;11.27;4.10;;;7.30;99.90;;;;;;5033169;28;20176;-69
2022/02/20 07:56:17;;;;;;;7.90;3.77;;;7.30;99.90;;;;;;5051577;28;20449;-70
2022/02/20 07:58:43;;;;;;;8.00;3.23;;;7.30;99.90;;;;;;5051532;28;20443;-70
2022/02/20 08:01:10;;;;;;;4.90;3.20;;;7.40;99.90;;;;;;5051628;28;20767;-69
2022/02/20 08:03:36;;;;;;;5.97;3.33;;;7.30;99.90;;;;;;5052628;28;20420;-70
2022/02/20 08:06:03;;;;;;;6.50;4.20;;;7.40;99.90;;;;;;5051305;28;20405;-70
2022/02/20 08:08:30;;;;;;;9.50;4.17;;;7.40;99.90;;;;;;5051336;28;20411;-70
2022/02/20 08:10:59;;;;;;;6.73;3.20;;;7.40;99.90;;;;;;5051384;28;20413;-69
2022/02/20 08:13:25;;;;;;;7.53;3.10;;;7.40;99.90;;;;;;5052093;28;20814;-69
2022/02/20 08:15:51;;;;;;;7.33;3.90;;;7.50;99.90;;;;;;5054676;28;20423;-69
2022/02/20 08:18:17;;;;;;;10.10;3.27;;;7.50;99.90;;;;;;5055515;28;20186;-68
2022/02/20 08:20:44;;;;;;;7.30;3.40;;;7.40;99.90;;;;;;5055503;28;20407;-68
2022/02/20 08:23:10;;;;;;;7.13;3.70;;;7.50;99.90;;;;;;5055778;28;21017;-69
2022/02/20 08:25:37;;;;;;;7.13;3.90;;;7.50;99.90;;;;;;5055030;28;20770;-69
2022/02/20 08:28:03;;;;;;;8.23;4.20;;;7.60;99.90;;;;;;5055602;28;20413;-71
2022/02/20 08:30:29;;;;;;;7.70;3.53;;;7.70;99.90;;;;;;5030904;28;20460;-71
2022/02/20 08:32:54;;;;;;;7.33;3.97;;;7.70;99.90;;;;;;5053454;28;20244;-69
2022/02/20 08:35:20;;;;;;;7.73;4.37;;;7.60;99.90;;;;;;5064879;28;20597;-70
2022/02/20 08:37:46;;;;;;;6.73;4.00;;;7.60;99.90;;;;;;5053644;28;20216;-70
2022/02/20 08:40:18;;;;;;;11.13;4.10;;;7.70;99.90;;;;;;5053874;28;20205;-69
2022/02/20 08:42:45;;;;;;;5.60;3.90;;;7.80;99.90;;;;;;5053264;28;20452;-69
2022/02/20 08:45:12;;;;;;;7.73;4.43;;;7.70;99.90;;;;;;5053206;28;20456;-70
2022/02/20 08:47:38;;;;;;;8.30;4.37;;;7.80;99.90;;;;;;5053571;28;20523;-69
2022/02/20 08:50:05;;;;;;;7.00;4.43;;;7.80;99.90;;;;;;5070829;28;20547;-70
2022/02/20 08:52:31;;;;;;;6.93;4.83;;;7.80;99.90;;;;;;5073436;28;20633;-70
2022/02/20 08:54:57;;;;;;;8.37;5.27;;;7.80;99.90;;;;;;5073757;28;20559;-70
2022/02/20 08:57:23;;;;;;;4.33;3.90;;;7.90;99.90;;;;;;5073867;28;20460;-69
2022/02/20 08:59:49;;;;;;;5.83;4.50;;;7.90;99.90;;;;;;5070563;28;20253;-70
2022/02/20 09:02:15;;;;;;;6.23;4.90;;;7.90;99.90;;;;;;5055398;28;20209;-69
2022/02/20 09:04:40;;;;;;;5.67;5.07;;;7.90;99.90;;;;;;5054359;28;20446;-68
2022/02/20 09:07:07;;;;;;;7.47;4.30;;;7.90;99.90;;;;;;5052809;28;20519;-70
2022/02/20 09:09:33;;;;;;;4.40;4.00;;;8.00;99.90;;;;;;5036576;28;20205;-69
2022/02/20 09:11:59;;;;;;;9.67;4.77;;;8.00;99.90;;;;;;5053646;28;20433;-69
2022/02/20 09:14:25;;;;;;;8.17;3.50;;;8.00;99.90;;;;;;5054309;28;20500;-69
2022/02/20 09:16:51;;;;;;;6.10;4.03;;;8.00;99.90;;;;;;5035493;28;20428;-69
2022/02/20 09:19:16;;;;;;;5.20;3.33;;;8.10;99.90;;;;;;5054140;28;20893;-70
2022/02/20 09:21:42;;;;;;;5.07;3.63;;;8.10;99.90;;;;;;5059696;28;20466;-70
2022/02/20 09:24:08;;;;;;;6.10;3.13;;;8.20;99.90;;;;;;5072666;28;20579;-70
2022/02/20 09:26:33;;;;;;;5.20;2.70;;;8.20;99.90;;;;;;5064593;28;20193;-69
2022/02/20 09:28:59;;;;;;;4.27;2.60;;;8.30;99.90;;;;;;5053167;28;20205;-70
2022/02/20 09:31:25;;;;;;;3.07;2.77;;;8.30;99.90;;;;;;5054443;28;20896;-70
2022/02/20 09:33:51;;;;;;;5.40;2.70;;;8.30;99.90;;;;;;5052702;28;20417;-68
2022/02/20 09:36:17;;;;;;;2.00;1.87;;;8.30;99.90;;;;;;5052931;28;20472;-68
2022/02/20 09:38:42;;;;;;;6.83;2.60;;;8.40;99.90;;;;;;5052826;28;20675;-67
2022/02/20 09:41:09;;;;;;;2.93;1.97;;;8.50;99.90;;;;;;5036564;28;20726;-68
2022/02/20 09:43:37;;;;;;;5.03;2.20;;;8.50;99.90;;;;;;5062999;28;20261;-68
2022/02/20 09:46:03;;;;;;;6.43;2.93;;;8.50;99.90;;;;;;5052914;28;20404;-68
2022/02/20 09:48:29;;;;;;;4.33;2.30;;;8.50;99.90;;;;;;5052973;28;20415;-69
2022/02/20 09:50:55;;;;;;;4.57;2.20;;;8.50;99.90;;;;;;5053046;28;20401;-69
2022/02/20 09:53:21;;;;;;;2.80;2.00;;;8.60;99.90;;;;;;5053085;28;20204;-69
2022/02/20 09:55:48;;;;;;;2.90;1.73;;;8.60;99.90;;;;;;5052648;28;20438;-69
2022/02/20 09:58:15;;;;;;;4.50;2.20;;;8.60;99.90;;;;;;5052870;28;20424;-69
2022/02/20 10:00:50;;;;;;;4.53;2.60;;;8.60;99.90;;;;;;5052867;28;20496;-69
2022/02/20 10:03:36;;;;;;;3.53;1.97;;;8.60;99.90;;;;;;5053125;28;20471;-69
2022/02/20 10:06:04;;;;;;;2.87;1.73;;;8.70;99.90;;;;;;5052969;28;20989;-69
2022/02/20 10:08:41;;;;;;;2.53;1.70;;;8.70;99.90;;;;;;5052355;28;20442;-69
2022/02/20 10:11:19;;;;;;;4.10;1.83;;;8.70;99.90;;;;;;5052484;28;20414;-70
2022/02/20 10:14:08;;;;;;;2.20;1.60;;;8.80;99.90;;;;;;5053604;28;20405;-69
2022/02/20 10:16:33;;;;;;;2.37;1.60;;;8.80;99.90;;;;;;5052289;28;20467;-70
2022/02/20 10:19:01;;;;;;;3.40;2.00;;;8.80;99.90;;;;;;5053348;28;20434;-68
2022/02/20 10:21:29;;;;;;;5.87;2.13;;;8.80;99.90;;;;;;5051984;28;20263;-69
2022/02/20 10:24:07;;;;;;;5.63;2.07;;;8.80;99.90;;;;;;5051450;28;20952;-69
2022/02/20 10:26:41;;;;;;;4.77;1.93;;;8.80;99.90;;;;;;5052211;28;20454;-69
2022/02/20 10:29:09;;;;;;;7.07;1.80;;;8.80;99.90;;;;;;5052014;28;20521;-69
2022/02/20 10:31:39;;;;;;;3.30;1.90;;;8.80;99.90;;;;;;5051794;28;20707;-68
2022/02/20 10:34:11;;;;;;;4.37;1.70;;;8.80;99.90;;;;;;5051902;28;20411;-69
2022/02/20 10:36:46;;;;;;;6.13;2.30;;;8.90;99.90;;;;;;5052459;28;20529;-68
2022/02/20 10:39:20;;;;;;;6.63;1.97;;;8.80;99.90;;;;;;5062215;28;20790;-69
2022/02/20 10:41:47;;;;;;;3.17;2.17;;;8.90;99.90;;;;;;5051276;28;20442;-69
2022/02/20 10:44:12;;;;;;;2.53;2.33;;;8.90;99.90;;;;;;5051110;28;20437;-70
2022/02/20 10:46:39;;;;;;;3.60;1.87;;;8.90;99.90;;;;;;5051547;28;21048;-69
2022/02/20 10:49:04;;;;;;;3.67;2.10;;;9.00;99.90;;;;;;5052534;28;20417;-69
2022/02/20 10:51:41;;;;;;;4.77;2.23;;;9.00;99.90;;;;;;5051671;28;20450;-69
2022/02/20 10:54:06;;;;;;;2.53;2.10;;;9.00;99.90;;;;;;5050093;28;20269;-70
2022/02/20 10:56:42;;;;;;;7.53;2.83;;;9.10;99.90;;;;;;5051484;28;20555;-69
2022/02/20 10:59:08;;;;;;;4.70;2.20;;;9.20;99.90;;;;;;5055951;28;20682;-70
2022/02/20 11:01:34;;;;;;;4.37;2.10;;;9.20;99.90;;;;;;5064267;28;20424;-69
2022/02/20 11:04:10;;;;;;;9.57;2.30;;;9.20;99.90;;;;;;5051145;28;20470;-70
2022/02/20 11:06:39;;;;;;;4.73;2.67;;;9.20;99.90;;;;;;5051905;28;20184;-70
2022/02/20 11:09:06;;;;;;;3.30;2.20;;;9.30;99.90;;;;;;5051738;28;20416;-70
2022/02/20 11:11:37;;;;;;;3.70;2.27;;;9.30;99.90;;;;;;5052521;28;20953;-69
2022/02/20 11:14:04;;;;;;;3.60;1.70;;;9.40;99.90;;;;;;5051322;28;20416;-70
2022/02/20 11:16:31;;;;;;;2.30;1.93;;;9.40;99.90;;;;;;5051236;28;20945;-69
2022/02/20 11:18:59;;;;;;;5.33;1.80;;;9.40;99.90;;;;;;5051357;28;20564;-70
2022/02/20 11:21:26;;;;;;;3.30;1.60;;;9.40;99.90;;;;;;5051938;28;20459;-69
2022/02/20 11:23:55;;;;;;;7.60;2.80;;;9.40;99.90;;;;;;5050868;28;20554;-70
2022/02/20 11:26:21;;;;;;;8.10;1.93;;;9.40;99.90;;;;;;5051138;28;20952;-70
2022/02/20 11:28:48;;;;;;;3.43;1.87;;;9.40;99.90;;;;;;5051051;28;20422;-69
2022/02/20 11:31:18;;;;;;;4.30;1.97;;;9.50;99.90;;;;;;5048573;28;20505;-69
2022/02/20 11:33:51;;;;;;;3.40;1.77;;;9.50;99.90;;;;;;5049530;28;20467;-70
2022/02/20 11:36:18;;;;;;;4.07;2.33;;;9.50;99.90;;;;;;5050976;28;20546;-70
2022/02/20 11:39:11;;;;;;;6.10;2.10;;;9.50;99.90;;;;;;5050703;28;20460;-70
2022/02/20 11:41:39;;;;;;;3.43;2.10;;;9.50;99.90;;;;;;5051954;28;20541;-69
2022/02/20 11:44:17;;;;;;;3.70;2.00;;;9.50;99.90;;;;;;5050908;28;20491;-69
2022/02/20 11:46:50;;;;;;;4.40;2.23;;;9.50;99.90;;;;;;5050821;28;20439;-68
2022/02/20 11:49:19;;;;;;;6.33;2.53;;;9.50;99.90;;;;;;5035166;28;20420;-69
2022/02/20 11:52:03;;;;;;;3.20;2.30;;;9.50;99.90;;;;;;5050775;28;20432;-69
2022/02/20 11:54:34;;;;;;;4.80;2.50;;;9.50;99.90;;;;;;5045491;28;20433;-71
2022/02/20 11:57:19;;;;;;;5.50;2.60;;;9.50;99.90;;;;;;5050413;28;20482;-70
2022/02/20 12:00:03;;;;;;;3.43;2.37;;;9.50;99.90;;;;;;5051005;28;20854;-69
2022/02/20 12:02:31;;;;;;;3.73;2.20;;;9.50;99.90;;;;;;5051726;28;20486;-69
2022/02/20 12:04:57;;;;;;;3.83;2.80;;;9.50;99.90;;;;;;5050671;28;20924;-69
2022/02/20 12:07:43;;;;;;;5.60;2.40;;;9.50;99.90;;;;;;5050735;28;20492;-70
2022/02/20 12:10:22;;;;;;;3.57;2.37;;;9.50;99.90;;;;;;5051486;28;20181;-70
2022/02/20 12:12:50;;;;;;;7.00;3.70;;;9.60;99.90;;;;;;5051251;28;20451;-70
2022/02/20 12:15:34;;;;;;;9.30;2.73;;;9.60;99.90;;;;;;5050799;28;20448;-71
2022/02/20 12:18:01;;;;;;;6.67;4.10;;;9.60;99.90;;;;;;5050676;28;20479;-70
2022/02/20 12:20:51;;;;;;;7.57;4.00;;;9.60;99.90;;;;;;5050677;28;20466;-71
2022/02/20 12:23:37;;;;;;;6.23;2.27;;;9.60;99.90;;;;;;5051210;28;20463;-70
2022/02/20 12:26:07;;;;;;;6.33;2.60;;;9.70;99.90;;;;;;5050332;28;20448;-70
2022/02/20 12:28:35;;;;;;;6.10;3.03;;;9.70;99.90;;;;;;5050306;28;20832;-69
2022/02/20 12:31:26;;;;;;;8.17;2.80;;;9.70;99.90;;;;;;5050181;28;20413;-69
2022/02/20 12:33:51;;;;;;;6.17;2.70;;;9.60;99.90;;;;;;5043867;28;20995;-70
2022/02/20 12:36:30;;;;;;;4.97;2.60;;;9.70;99.90;;;;;;5050472;28;20534;-69
2022/02/20 12:39:00;;;;;;;7.57;3.37;;;9.60;99.90;;;;;;5060333;28;20172;-69
2022/02/20 12:41:27;;;;;;;4.30;2.80;;;9.70;99.90;;;;;;5050438;28;20428;-69
2022/02/20 12:43:55;;;;;;;7.43;3.23;;;9.70;99.90;;;;;;5050150;28;20741;-70
2022/02/20 12:46:21;;;;;;;4.40;2.90;;;9.70;99.90;;;;;;5050269;28;20418;-69
2022/02/20 12:48:47;;;;;;;8.83;3.00;;;9.70;99.90;;;;;;5051354;28;20451;-69
2022/02/20 12:51:14;;;;;;;5.90;2.83;;;9.70;99.90;;;;;;5050303;28;20931;-70
2022/02/20 12:53:44;;;;;;;9.93;3.33;;;9.70;99.90;;;;;;5050203;28;20404;-70
2022/02/20 12:56:10;;;;;;;6.07;2.80;;;9.70;99.90;;;;;;5050356;28;20413;-69